Latest Coastal Weather Observations for Milingimbi

IDD60701

Issued at 2:41 am CST Monday 22 December 2014 (issued every 10 minutes, with the page automatically refreshed every 10 minutes)

About coastal observations | Map of coastal stations | Coastal observations for NT | Marine services | Other Formats
Station Details ID: 014404 Name: MILINGIMBI AIRPORT Lat: -12.09 Lon: 134.89 Height: 15.0 m
Data from the previous 72 hours. | See also: Recent months at Milingimbi
Date/Time
CST
Temp

°C
Wind Pressure Rain
since 9am
mm
Weather Cloud Vis
km
Sea
Height
m
Swell
Dir
 
Speed
knots
Gust
knots
hPa Trend Height
m
Period
s
Dir
22/02:30am 28.0 CALM 0 0 1007.3 - 0.0 - - - - - - -
22/02:00am 28.6 CALM 0 0 1007.7 - 0.0 - - - - - - -
22/01:30am 28.1 N 1 4 1007.6 - 0.0 - - - - - - -
22/01:00am 28.0 CALM 0 0 1007.8 - 0.0 - - - - - - -
22/12:30am 28.4 CALM 0 4 1008.0 - 0.0 - - - - - - -
22/12:00am 28.5 CALM 0 0 1008.0 - 0.0 - - - - - - -
 
Date/Time
CST
Temp

°C
Wind Pressure Rain
since 9am
mm
Weather Cloud Vis
km
Sea
Height
m
Swell
Dir
 
Speed
knots
Gust
knots
hPa Trend Height
m
Period
s
Dir
21/11:30pm 28.8 CALM 0 1 1008.3 - 0.0 - - - - - - -
21/11:00pm 28.4 N 1 4 1008.1 - 0.0 - - - - - - -
21/10:30pm 28.4 CALM 0 0 1007.9 - 0.0 - - - - - - -
21/10:00pm 28.7 N 1 3 1007.6 - 0.0 - - - - - - -
21/09:30pm 28.7 N 3 4 1007.3 - 0.0 - - - - - - -
21/09:00pm 29.1 CALM 0 3 1006.9 - 0.0 - - - - - - -
21/08:30pm 29.8 N 1 5 1006.7 - 0.0 - - - - - - -
21/08:00pm 29.9 N 3 4 1006.2 - 0.0 - - - - - - -
21/07:30pm 30.2 N 3 5 1005.7 - 0.0 - - - - - - -
21/07:00pm 30.4 N 4 6 1005.5 - 0.0 - - - - - - -
21/06:30pm 31.0 N 5 8 1005.2 - 0.0 - - - - - - -
21/06:00pm 31.4 N 7 11 1005.0 - 0.0 - - - - - - -
21/05:30pm 31.5 N 7 12 1005.0 - 0.0 - - - - - - -
21/05:00pm 31.7 N 7 11 1004.9 - 0.0 - - - - - - -
21/04:30pm 31.8 N 8 11 1004.8 - 0.0 - - - - - - -
21/04:00pm 32.5 N 6 11 1005.3 - 0.0 - - - - - - -
21/03:30pm 33.3 NNE 7 11 1005.6 - 0.0 - - - - - - -
21/03:00pm 33.1 NNE 7 11 1006.0 - 0.0 - - - - - - -
21/02:30pm 33.6 N 7 13 1006.7 - 0.0 - - - - - - -
21/02:00pm 33.0 N 8 13 1007.0 - 0.0 - - - - - - -
21/01:30pm 33.4 N 8 12 1007.6 - 0.0 - - - - - - -
21/01:00pm 34.1 N 7 13 1008.1 - 0.0 - - - - - - -
21/12:30pm 34.4 N 8 13 1008.7 - 0.0 - - - - - - -
21/12:00pm 33.2 N 8 13 1008.8 - 0.0 - - - - - - -
21/11:30am 33.7 N 9 13 1009.3 - 0.0 - - - - - - -
21/11:00am 33.3 N 7 12 1009.7 - 0.0 - - - - - - -
21/10:30am 33.5 NNW 6 11 1009.8 - 0.0 - - - - - - -
21/10:00am 34.0 NW 5 10 1010.1 - 0.0 - - - - - - -
21/09:30am 31.9 NNW 5 8 1010.0 - 0.0 - - - - - - -
21/09:00am 32.8 WNW 9 12 1009.6 - 0.0 - - - - - - -
21/08:30am 31.3 W 6 10 1009.6 - 0.0 - - - - - - -
21/08:00am 31.0 WNW 3 7 1009.3 - 0.0 - - - - - - -
21/07:30am 30.5 W 4 5 1009.1 - 0.0 - - - - - - -
21/07:00am 29.8 W 2 4 1008.8 - 0.0 - - - - - - -
21/06:30am 28.9 CALM 0 0 1008.3 - 0.0 - - - - - - -
21/06:00am 28.5 NW 3 4 1007.5 - 0.0 - - - - - - -
21/05:30am 28.7 CALM 0 0 1007.8 - 0.0 - - - - - - -
21/05:00am 29.2 N 2 4 1007.6 - 0.0 - - - - - - -
21/04:30am 29.4 N 3 6 1007.3 - 0.0 - - - - - - -
21/04:00am 29.5 N 3 6 1007.3 - 0.0 - - - - - - -
21/03:30am 29.5 N 3 5 1007.4 - 0.0 - - - - - - -
21/03:00am 29.4 NNW 3 4 1007.4 - 0.0 - - - - - - -
21/02:30am 29.5 NNW 3 5 1007.8 - 0.0 - - - - - - -
21/02:00am 29.5 N 2 4 1008.1 - 0.0 - - - - - - -
21/01:30am 29.5 N 3 4 1008.2 - 0.0 - - - - - - -
21/01:00am 29.6 N 1 3 1008.5 - 0.0 - - - - - - -
21/12:30am 29.8 N 2 4 1008.9 - 0.0 - - - - - - -
21/12:00am 30.0 NNW 3 5 1008.8 - 0.0 - - - - - - -
 
Date/Time
CST
Temp

°C
Wind Pressure Rain
since 9am
mm
Weather Cloud Vis
km
Sea
Height
m
Swell
Dir
 
Speed
knots
Gust
knots
hPa Trend Height
m
Period
s
Dir
20/11:30pm 30.1 NNW 3 6 1008.8 - 0.0 - - - - - - -
20/11:00pm 30.2 N 4 7 1008.6 - 0.0 - - - - - - -
20/10:30pm 30.2 N 4 7 1008.2 - 0.0 - - - - - - -
20/10:00pm 30.2 N 3 5 1008.2 - 0.0 - - - - - - -
20/09:30pm 30.4 NNW 4 7 1007.8 - 0.0 - - - - - - -
20/09:00pm 30.5 N 4 6 1007.3 - 0.0 - - - - - - -
20/08:30pm 30.5 N 4 6 1007.2 - 0.0 - - - - - - -
20/08:00pm 30.6 NNW 4 6 1007.0 - 0.0 - - - - - - -
20/07:30pm 30.9 N 5 8 1006.5 - 0.0 - - - - - - -
20/07:00pm 31.0 N 4 7 1006.1 - 0.0 - - - - - - -
20/06:30pm 31.4 N 5 9 1005.8 - 0.0 - - - - - - -
20/06:00pm 31.5 N 7 11 1005.4 - 0.0 - - - - - - -
20/05:30pm 32.4 N 6 12 1005.6 - 0.0 - - - - - - -
20/05:00pm 32.4 N 9 15 1005.3 - 0.0 - - - - - - -
20/04:30pm 32.6 N 11 17 1005.5 - 0.0 - - - - - - -
20/04:00pm 33.5 NNW 9 19 1005.1 - 0.0 - - - - - - -
20/03:30pm 33.0 N 10 15 1005.5 - 0.0 - - - - - - -
20/03:00pm 33.8 N 10 16 1005.3 - 0.0 - - - - - - -
20/02:30pm 34.5 N 9 13 1005.9 - 0.0 - - - - - - -
20/02:00pm 34.5 N 8 13 1006.3 - 0.0 - - - - - - -
20/01:30pm 34.4 N 9 15 1006.7 - 0.0 - - - - - - -
20/01:00pm 34.6 N 9 15 1007.2 - 0.0 - - - - - - -
20/12:30pm 35.1 N 9 17 1007.6 - 0.0 - - - - - - -
20/12:00pm 34.5 N 7 15 1007.7 - 0.0 - - - - - - -
20/11:30am 34.9 N 7 13 1008.5 - 0.0 - - - - - - -
20/11:00am 34.4 N 6 9 1009.1 - 0.0 - - - - - - -
20/10:30am 34.2 NNW 7 11 1009.4 - 0.0 - - - - - - -
20/10:00am 34.2 WNW 8 13 1009.7 - 0.0 - - - - - - -
20/09:30am 32.4 WNW 6 9 1010.0 - 0.0 - - - - - - -
20/09:00am 31.9 W 6 10 1010.1 - 0.0 - - - - - - -
20/08:30am 31.6 W 5 7 1010.3 - 0.0 - - - - - - -
20/08:00am 30.5 SW 4 6 1010.2 - 0.0 - - - - - - -
20/07:30am 29.5 SSW 2 5 1009.8 - 0.0 - - - - - - -
20/07:00am 28.9 CALM 0 3 1009.8 - 0.0 - - - - - - -
20/06:30am 28.1 CALM 0 0 1009.4 - 0.0 - - - - - - -
20/06:00am 27.7 CALM 0 0 1008.7 - 0.0 - - - - - - -
20/05:30am 27.9 CALM 0 0 1008.4 - 0.0 - - - - - - -
20/05:00am 28.0 NW 2 4 1007.8 - 0.0 - - - - - - -
20/04:30am 28.7 W 2 4 1007.9 - 0.0 - - - - - - -
20/04:00am 29.1 NW 3 5 1007.8 - 0.0 - - - - - - -
20/03:30am 29.3 NNW 3 4 1007.8 - 0.0 - - - - - - -
20/03:00am 29.5 N 2 4 1007.8 - 0.0 - - - - - - -
20/02:30am 29.8 NNW 4 7 1008.0 - 0.0 - - - - - - -
20/02:00am 29.8 N 4 6 1008.4 - 0.0 - - - - - - -
20/01:30am 29.7 N 4 6 1008.6 - 0.0 - - - - - - -
20/01:00am 29.6 N 2 4 1009.2 - 0.0 - - - - - - -
20/12:30am 29.9 N 3 5 1009.5 - 0.0 - - - - - - -
20/12:00am 29.6 NNE 2 4 1009.6 - 0.0 - - - - - - -
 
Date/Time
CST
Temp

°C
Wind Pressure Rain
since 9am
mm
Weather Cloud Vis
km
Sea
Height
m
Swell
Dir
 
Speed
knots
Gust
knots
hPa Trend Height
m
Period
s
Dir
19/11:30pm 29.8 N 1 4 1010.3 - 0.0 - - - - - - -
19/11:00pm 30.0 N 2 5 1010.5 - 0.0 - - - - - - -
19/10:30pm 30.2 NE 4 6 1010.4 - 0.0 - - - - - - -
19/10:00pm 30.2 NE 3 6 1010.2 - 0.0 - - - - - - -
19/09:30pm 30.5 NNE 5 8 1010.1 - 0.0 - - - - - - -
19/09:00pm 30.5 NNE 4 7 1009.7 - 0.0 - - - - - - -
19/08:30pm 30.6 N 5 9 1009.3 - 0.0 - - - - - - -
19/08:00pm 30.6 N 5 8 1008.9 - 0.0 - - - - - - -
19/07:30pm 30.7 N 5 8 1008.3 - 0.0 - - - - - - -
19/07:00pm 30.9 N 5 9 1007.6 - 0.0 - - - - - - -
19/06:30pm 31.2 N 7 11 1007.1 - 0.0 - - - - - - -
19/06:00pm 31.7 N 6 10 1007.0 - 0.0 - - - - - - -
19/05:30pm 32.2 N 8 13 1006.9 - 0.0 - - - - - - -
19/05:00pm 32.7 NNW 7 13 1006.7 - 0.0 - - - - - - -
19/04:30pm 33.4 N 6 12 1006.7 - 0.0 - - - - - - -
19/04:00pm 34.1 NNW 7 12 1006.5 - 0.0 - - - - - - -
19/03:30pm 33.8 N 8 14 1006.9 - 0.0 - - - - - - -
19/03:00pm 33.2 N 9 13 1007.3 - 0.0 - - - - - - -
19/02:30pm 33.4 N 7 12 1007.8 - 0.0 - - - - - - -
19/02:00pm 34.0 N 8 13 1008.2 - 0.0 - - - - - - -
19/01:30pm 34.9 N 7 11 1008.6 - 0.0 - - - - - - -
19/01:00pm 35.7 NNE 7 12 1008.9 - 0.0 - - - - - - -
19/12:30pm 34.4 N 7 12 1009.3 - 0.0 - - - - - - -
19/12:00pm 34.7 N 7 15 1009.6 - 0.0 - - - - - - -
19/11:30am 33.8 N 7 12 1010.3 - 0.0 - - - - - - -
19/11:00am 33.4 N 8 11 1010.5 - 0.0 - - - - - - -
19/10:30am 33.4 N 7 10 1010.7 - 0.0 - - - - - - -
19/10:00am 34.1 W 5 9 1010.9 - 0.0 - - - - - - -
19/09:30am 32.8 WNW 5 7 1011.0 - 0.0 - - - - - - -
19/09:00am 32.3 NW 5 8 1010.7 - 0.0 - - - - - - -
19/08:30am 32.1 WNW 6 9 1010.8 - 0.0 - - - - - - -
19/08:00am 31.4 W 8 11 1010.5 - 0.0 - - - - - - -
19/07:30am 30.7 WNW 5 7 1010.7 - 0.0 - - - - - - -
19/07:00am 29.3 CALM 0 0 1010.3 - 0.0 - - - - - - -
19/06:30am 28.0 CALM 0 0 1010.0 - 0.0 - - - - - - -
19/06:00am 27.7 CALM 0 0 1009.6 - 0.0 - - - - - - -
19/05:30am 27.8 CALM 0 0 1009.5 - 0.0 - - - - - - -
19/05:00am 27.8 CALM 0 2 1009.3 - 0.0 - - - - - - -
19/04:30am 27.9 CALM 0 0 1009.2 - 0.0 - - - - - - -
19/04:00am 28.1 CALM 0 0 1009.1 - 0.0 - - - - - - -
19/03:30am 28.1 CALM 0 0 1008.8 - 0.0 - - - - - - -
19/03:00am 28.1 CALM 0 0 1008.3 - 0.0 - - - - - - -

Other Formats:

Comma delimited format used in spreadsheet applications
http://www.bom.gov.au/fwo/IDD60701/IDD60701.94140.axf

JavaScript Object Notation format (JSON) in row-major order
http://www.bom.gov.au/fwo/IDD60701/IDD60701.94140.json